sensor_id;sensor_type;location;lat;lon;timestamp;P1;durP1;ratioP1;P2;durP2;ratioP2
39020;SDS011;25188;51.958;5.842;2023-12-28T00:00:58;4.60;;;1.60;;
39020;SDS011;25188;51.958;5.842;2023-12-28T00:03:24;5.40;;;1.57;;
39020;SDS011;25188;51.958;5.842;2023-12-28T00:05:49;3.57;;;1.50;;
39020;SDS011;25188;51.958;5.842;2023-12-28T00:08:15;4.32;;;1.50;;
39020;SDS011;25188;51.958;5.842;2023-12-28T00:10:41;3.53;;;1.67;;
39020;SDS011;25188;51.958;5.842;2023-12-28T00:13:06;3.58;;;1.38;;
39020;SDS011;25188;51.958;5.842;2023-12-28T00:15:32;5.70;;;1.85;;
39020;SDS011;25188;51.958;5.842;2023-12-28T00:17:58;5.65;;;1.85;;
39020;SDS011;25188;51.958;5.842;2023-12-28T00:20:24;4.93;;;1.65;;
39020;SDS011;25188;51.958;5.842;2023-12-28T00:22:49;3.35;;;1.48;;
39020;SDS011;25188;51.958;5.842;2023-12-28T00:25:15;4.38;;;1.50;;
39020;SDS011;25188;51.958;5.842;2023-12-28T00:27:40;5.60;;;1.67;;
39020;SDS011;25188;51.958;5.842;2023-12-28T00:30:06;4.43;;;1.80;;
39020;SDS011;25188;51.958;5.842;2023-12-28T00:32:32;3.00;;;1.37;;
39020;SDS011;25188;51.958;5.842;2023-12-28T00:34:58;3.90;;;1.35;;
39020;SDS011;25188;51.958;5.842;2023-12-28T00:37:37;8.07;;;2.53;;
39020;SDS011;25188;51.958;5.842;2023-12-28T00:40:03;6.47;;;1.88;;
39020;SDS011;25188;51.958;5.842;2023-12-28T00:42:29;4.47;;;1.55;;
39020;SDS011;25188;51.958;5.842;2023-12-28T00:44:54;5.88;;;1.83;;
39020;SDS011;25188;51.958;5.842;2023-12-28T00:47:20;5.10;;;1.58;;
39020;SDS011;25188;51.958;5.842;2023-12-28T00:49:46;4.55;;;1.83;;
39020;SDS011;25188;51.958;5.842;2023-12-28T00:52:11;4.38;;;1.70;;
39020;SDS011;25188;51.958;5.842;2023-12-28T00:54:37;4.05;;;1.55;;
39020;SDS011;25188;51.958;5.842;2023-12-28T00:57:04;6.67;;;1.80;;
39020;SDS011;25188;51.958;5.842;2023-12-28T00:59:29;4.68;;;1.52;;
39020;SDS011;25188;51.958;5.842;2023-12-28T01:01:56;7.82;;;2.38;;
39020;SDS011;25188;51.958;5.842;2023-12-28T01:04:22;3.15;;;1.30;;
39020;SDS011;25188;51.958;5.842;2023-12-28T01:06:51;4.38;;;1.70;;
39020;SDS011;25188;51.958;5.842;2023-12-28T01:09:17;4.13;;;1.63;;
39020;SDS011;25188;51.958;5.842;2023-12-28T01:11:43;5.03;;;1.63;;
39020;SDS011;25188;51.958;5.842;2023-12-28T01:14:09;6.95;;;1.83;;
39020;SDS011;25188;51.958;5.842;2023-12-28T01:16:35;4.03;;;1.50;;
39020;SDS011;25188;51.958;5.842;2023-12-28T01:19:01;3.83;;;1.83;;
39020;SDS011;25188;51.958;5.842;2023-12-28T01:21:27;4.03;;;1.73;;
39020;SDS011;25188;51.958;5.842;2023-12-28T01:23:53;3.50;;;1.42;;
39020;SDS011;25188;51.958;5.842;2023-12-28T01:26:19;4.72;;;1.75;;
39020;SDS011;25188;51.958;5.842;2023-12-28T01:28:45;6.45;;;1.83;;
39020;SDS011;25188;51.958;5.842;2023-12-28T01:31:11;5.80;;;2.08;;
39020;SDS011;25188;51.958;5.842;2023-12-28T01:33:37;3.42;;;1.63;;
39020;SDS011;25188;51.958;5.842;2023-12-28T01:36:13;4.65;;;2.17;;
39020;SDS011;25188;51.958;5.842;2023-12-28T01:38:43;3.63;;;1.77;;
39020;SDS011;25188;51.958;5.842;2023-12-28T01:41:08;5.47;;;1.75;;
39020;SDS011;25188;51.958;5.842;2023-12-28T01:43:34;3.42;;;1.52;;
39020;SDS011;25188;51.958;5.842;2023-12-28T01:46:00;6.18;;;1.90;;
39020;SDS011;25188;51.958;5.842;2023-12-28T01:48:27;5.90;;;1.97;;
39020;SDS011;25188;51.958;5.842;2023-12-28T01:50:53;5.13;;;1.77;;
39020;SDS011;25188;51.958;5.842;2023-12-28T01:53:20;4.35;;;1.90;;
39020;SDS011;25188;51.958;5.842;2023-12-28T01:55:46;4.57;;;1.92;;
39020;SDS011;25188;51.958;5.842;2023-12-28T01:58:12;7.57;;;1.60;;
39020;SDS011;25188;51.958;5.842;2023-12-28T02:00:37;6.63;;;2.03;;
39020;SDS011;25188;51.958;5.842;2023-12-28T02:03:04;6.28;;;2.10;;
39020;SDS011;25188;51.958;5.842;2023-12-28T02:05:32;5.30;;;2.28;;
39020;SDS011;25188;51.958;5.842;2023-12-28T02:07:58;6.18;;;2.45;;
39020;SDS011;25188;51.958;5.842;2023-12-28T02:10:25;3.27;;;1.57;;
39020;SDS011;25188;51.958;5.842;2023-12-28T02:12:51;5.25;;;1.73;;
39020;SDS011;25188;51.958;5.842;2023-12-28T02:15:18;6.05;;;1.70;;
39020;SDS011;25188;51.958;5.842;2023-12-28T02:17:47;6.55;;;1.85;;
39020;SDS011;25188;51.958;5.842;2023-12-28T02:20:20;6.10;;;2.00;;
39020;SDS011;25188;51.958;5.842;2023-12-28T02:22:46;5.30;;;1.70;;
39020;SDS011;25188;51.958;5.842;2023-12-28T02:25:12;4.40;;;1.67;;
39020;SDS011;25188;51.958;5.842;2023-12-28T02:27:39;4.50;;;1.93;;
39020;SDS011;25188;51.958;5.842;2023-12-28T02:30:11;7.18;;;2.17;;
39020;SDS011;25188;51.958;5.842;2023-12-28T02:32:42;8.87;;;2.13;;
39020;SDS011;25188;51.958;5.842;2023-12-28T02:35:19;6.57;;;2.10;;
39020;SDS011;25188;51.958;5.842;2023-12-28T02:37:51;5.43;;;2.08;;
39020;SDS011;25188;51.958;5.842;2023-12-28T02:40:19;4.25;;;1.65;;
39020;SDS011;25188;51.958;5.842;2023-12-28T02:42:47;6.45;;;1.92;;
39020;SDS011;25188;51.958;5.842;2023-12-28T02:45:13;5.38;;;1.60;;
39020;SDS011;25188;51.958;5.842;2023-12-28T02:47:38;7.17;;;2.03;;
39020;SDS011;25188;51.958;5.842;2023-12-28T02:50:04;6.97;;;1.73;;
39020;SDS011;25188;51.958;5.842;2023-12-28T02:52:31;4.18;;;1.50;;
39020;SDS011;25188;51.958;5.842;2023-12-28T02:54:56;6.17;;;1.47;;
39020;SDS011;25188;51.958;5.842;2023-12-28T02:57:23;7.67;;;1.90;;
39020;SDS011;25188;51.958;5.842;2023-12-28T02:59:49;5.68;;;1.60;;
39020;SDS011;25188;51.958;5.842;2023-12-28T03:02:15;7.83;;;1.83;;
39020;SDS011;25188;51.958;5.842;2023-12-28T03:04:40;5.63;;;1.55;;
39020;SDS011;25188;51.958;5.842;2023-12-28T03:07:07;7.30;;;1.92;;
39020;SDS011;25188;51.958;5.842;2023-12-28T03:09:33;5.93;;;1.73;;
39020;SDS011;25188;51.958;5.842;2023-12-28T03:11:59;7.57;;;1.83;;
39020;SDS011;25188;51.958;5.842;2023-12-28T03:14:26;6.20;;;1.50;;
39020;SDS011;25188;51.958;5.842;2023-12-28T03:16:51;10.50;;;2.33;;
39020;SDS011;25188;51.958;5.842;2023-12-28T03:19:17;5.20;;;1.47;;
39020;SDS011;25188;51.958;5.842;2023-12-28T03:21:43;8.50;;;1.80;;
39020;SDS011;25188;51.958;5.842;2023-12-28T03:24:08;5.70;;;1.42;;
39020;SDS011;25188;51.958;5.842;2023-12-28T03:26:38;6.00;;;1.60;;
39020;SDS011;25188;51.958;5.842;2023-12-28T03:29:07;8.93;;;1.90;;
39020;SDS011;25188;51.958;5.842;2023-12-28T03:31:33;6.80;;;1.70;;
39020;SDS011;25188;51.958;5.842;2023-12-28T03:33:59;4.60;;;1.30;;
39020;SDS011;25188;51.958;5.842;2023-12-28T03:36:24;7.13;;;1.73;;
39020;SDS011;25188;51.958;5.842;2023-12-28T03:38:50;5.97;;;2.05;;
39020;SDS011;25188;51.958;5.842;2023-12-28T03:41:19;4.78;;;1.08;;
39020;SDS011;25188;51.958;5.842;2023-12-28T03:43:45;8.35;;;1.63;;
39020;SDS011;25188;51.958;5.842;2023-12-28T03:46:12;6.77;;;1.70;;
39020;SDS011;25188;51.958;5.842;2023-12-28T03:48:38;9.43;;;2.40;;
39020;SDS011;25188;51.958;5.842;2023-12-28T03:51:04;6.82;;;1.40;;
39020;SDS011;25188;51.958;5.842;2023-12-28T03:53:30;9.13;;;1.73;;
39020;SDS011;25188;51.958;5.842;2023-12-28T03:55:59;6.38;;;2.17;;
39020;SDS011;25188;51.958;5.842;2023-12-28T03:58:24;5.68;;;1.20;;
39020;SDS011;25188;51.958;5.842;2023-12-28T04:00:50;6.60;;;1.30;;
39020;SDS011;25188;51.958;5.842;2023-12-28T04:03:17;8.38;;;1.63;;
39020;SDS011;25188;51.958;5.842;2023-12-28T04:05:43;4.82;;;1.02;;
39020;SDS011;25188;51.958;5.842;2023-12-28T04:08:09;9.13;;;1.50;;
39020;SDS011;25188;51.958;5.842;2023-12-28T04:10:35;7.40;;;1.88;;
39020;SDS011;25188;51.958;5.842;2023-12-28T04:13:02;6.97;;;1.30;;
39020;SDS011;25188;51.958;5.842;2023-12-28T04:15:28;7.05;;;1.45;;
39020;SDS011;25188;51.958;5.842;2023-12-28T04:17:54;8.07;;;1.27;;
39020;SDS011;25188;51.958;5.842;2023-12-28T04:20:20;6.22;;;1.40;;
39020;SDS011;25188;51.958;5.842;2023-12-28T04:22:46;5.18;;;1.40;;
39020;SDS011;25188;51.958;5.842;2023-12-28T04:25:11;5.55;;;1.30;;
39020;SDS011;25188;51.958;5.842;2023-12-28T04:27:38;6.70;;;1.70;;
39020;SDS011;25188;51.958;5.842;2023-12-28T04:30:04;4.45;;;1.10;;
39020;SDS011;25188;51.958;5.842;2023-12-28T04:32:31;10.18;;;1.50;;
39020;SDS011;25188;51.958;5.842;2023-12-28T04:34:57;10.98;;;1.52;;
39020;SDS011;25188;51.958;5.842;2023-12-28T04:37:23;6.47;;;1.63;;
39020;SDS011;25188;51.958;5.842;2023-12-28T04:39:49;5.47;;;1.42;;
39020;SDS011;25188;51.958;5.842;2023-12-28T04:42:14;8.75;;;1.95;;
39020;SDS011;25188;51.958;5.842;2023-12-28T04:44:40;6.75;;;1.38;;
39020;SDS011;25188;51.958;5.842;2023-12-28T04:47:06;7.68;;;1.52;;
39020;SDS011;25188;51.958;5.842;2023-12-28T04:49:31;9.23;;;1.25;;
39020;SDS011;25188;51.958;5.842;2023-12-28T04:51:57;11.70;;;1.35;;
39020;SDS011;25188;51.958;5.842;2023-12-28T04:54:23;9.93;;;1.48;;
39020;SDS011;25188;51.958;5.842;2023-12-28T04:56:48;11.13;;;1.58;;
39020;SDS011;25188;51.958;5.842;2023-12-28T04:59:14;12.88;;;1.17;;
39020;SDS011;25188;51.958;5.842;2023-12-28T05:01:43;7.32;;;1.48;;
39020;SDS011;25188;51.958;5.842;2023-12-28T05:04:09;10.30;;;1.23;;
39020;SDS011;25188;51.958;5.842;2023-12-28T05:06:35;11.53;;;1.67;;
39020;SDS011;25188;51.958;5.842;2023-12-28T05:09:01;10.95;;;1.77;;
39020;SDS011;25188;51.958;5.842;2023-12-28T05:11:27;11.68;;;1.52;;
39020;SDS011;25188;51.958;5.842;2023-12-28T05:13:53;13.18;;;1.77;;
39020;SDS011;25188;51.958;5.842;2023-12-28T05:16:19;7.85;;;1.33;;
39020;SDS011;25188;51.958;5.842;2023-12-28T05:18:45;15.88;;;1.80;;
39020;SDS011;25188;51.958;5.842;2023-12-28T05:21:11;10.13;;;1.50;;
39020;SDS011;25188;51.958;5.842;2023-12-28T05:23:38;11.40;;;1.80;;
39020;SDS011;25188;51.958;5.842;2023-12-28T05:26:04;12.95;;;1.60;;
39020;SDS011;25188;51.958;5.842;2023-12-28T05:28:29;10.23;;;1.90;;
39020;SDS011;25188;51.958;5.842;2023-12-28T05:30:55;11.07;;;1.80;;
39020;SDS011;25188;51.958;5.842;2023-12-28T05:33:21;13.15;;;2.22;;
39020;SDS011;25188;51.958;5.842;2023-12-28T05:35:47;9.68;;;1.63;;
39020;SDS011;25188;51.958;5.842;2023-12-28T05:38:13;13.27;;;1.80;;
39020;SDS011;25188;51.958;5.842;2023-12-28T05:40:39;9.65;;;1.73;;
39020;SDS011;25188;51.958;5.842;2023-12-28T05:43:05;13.00;;;1.77;;
39020;SDS011;25188;51.958;5.842;2023-12-28T05:45:30;10.27;;;1.23;;
39020;SDS011;25188;51.958;5.842;2023-12-28T05:47:56;10.40;;;1.85;;
39020;SDS011;25188;51.958;5.842;2023-12-28T05:50:22;10.52;;;1.95;;
39020;SDS011;25188;51.958;5.842;2023-12-28T05:52:48;11.13;;;1.65;;
39020;SDS011;25188;51.958;5.842;2023-12-28T05:55:13;11.50;;;1.40;;
39020;SDS011;25188;51.958;5.842;2023-12-28T05:57:39;10.45;;;1.20;;
39020;SDS011;25188;51.958;5.842;2023-12-28T06:00:05;9.52;;;2.58;;
39020;SDS011;25188;51.958;5.842;2023-12-28T06:02:31;10.48;;;2.00;;
39020;SDS011;25188;51.958;5.842;2023-12-28T06:04:57;9.15;;;1.80;;
39020;SDS011;25188;51.958;5.842;2023-12-28T06:07:23;8.98;;;1.52;;
39020;SDS011;25188;51.958;5.842;2023-12-28T06:09:49;12.23;;;1.70;;
39020;SDS011;25188;51.958;5.842;2023-12-28T06:12:14;12.57;;;1.95;;
39020;SDS011;25188;51.958;5.842;2023-12-28T06:14:40;7.13;;;1.30;;
39020;SDS011;25188;51.958;5.842;2023-12-28T06:17:06;16.27;;;2.20;;
39020;SDS011;25188;51.958;5.842;2023-12-28T06:19:32;12.00;;;2.05;;
39020;SDS011;25188;51.958;5.842;2023-12-28T06:21:58;12.93;;;2.25;;
39020;SDS011;25188;51.958;5.842;2023-12-28T06:24:24;8.05;;;1.40;;
39020;SDS011;25188;51.958;5.842;2023-12-28T06:26:50;15.90;;;2.00;;
39020;SDS011;25188;51.958;5.842;2023-12-28T06:29:15;15.00;;;1.90;;
39020;SDS011;25188;51.958;5.842;2023-12-28T06:31:41;10.65;;;1.60;;
39020;SDS011;25188;51.958;5.842;2023-12-28T06:34:07;16.15;;;1.77;;
39020;SDS011;25188;51.958;5.842;2023-12-28T06:36:33;11.95;;;1.58;;
39020;SDS011;25188;51.958;5.842;2023-12-28T06:38:58;8.55;;;2.22;;
39020;SDS011;25188;51.958;5.842;2023-12-28T06:41:24;12.07;;;1.60;;
39020;SDS011;25188;51.958;5.842;2023-12-28T06:43:51;12.65;;;2.08;;
39020;SDS011;25188;51.958;5.842;2023-12-28T06:46:17;14.65;;;1.58;;
39020;SDS011;25188;51.958;5.842;2023-12-28T06:48:44;12.20;;;1.80;;
39020;SDS011;25188;51.958;5.842;2023-12-28T06:51:18;10.82;;;2.15;;
39020;SDS011;25188;51.958;5.842;2023-12-28T06:53:45;9.33;;;1.70;;
39020;SDS011;25188;51.958;5.842;2023-12-28T06:56:11;12.02;;;1.45;;
39020;SDS011;25188;51.958;5.842;2023-12-28T06:58:37;10.93;;;1.75;;
39020;SDS011;25188;51.958;5.842;2023-12-28T07:01:03;14.70;;;1.55;;
39020;SDS011;25188;51.958;5.842;2023-12-28T07:03:29;10.27;;;2.30;;
39020;SDS011;25188;51.958;5.842;2023-12-28T07:06:01;15.63;;;2.17;;
39020;SDS011;25188;51.958;5.842;2023-12-28T07:08:28;7.53;;;1.83;;
39020;SDS011;25188;51.958;5.842;2023-12-28T07:10:53;11.90;;;1.63;;
39020;SDS011;25188;51.958;5.842;2023-12-28T07:13:19;13.63;;;2.63;;
39020;SDS011;25188;51.958;5.842;2023-12-28T07:15:45;14.27;;;1.58;;
39020;SDS011;25188;51.958;5.842;2023-12-28T07:18:11;13.20;;;2.03;;
39020;SDS011;25188;51.958;5.842;2023-12-28T07:20:37;15.07;;;3.00;;
39020;SDS011;25188;51.958;5.842;2023-12-28T07:23:03;15.10;;;2.15;;
39020;SDS011;25188;51.958;5.842;2023-12-28T07:25:29;12.85;;;2.22;;
39020;SDS011;25188;51.958;5.842;2023-12-28T07:27:54;15.65;;;2.28;;
39020;SDS011;25188;51.958;5.842;2023-12-28T07:30:20;14.27;;;2.67;;
39020;SDS011;25188;51.958;5.842;2023-12-28T07:32:46;16.65;;;3.03;;
39020;SDS011;25188;51.958;5.842;2023-12-28T07:35:11;13.15;;;1.90;;
39020;SDS011;25188;51.958;5.842;2023-12-28T07:37:37;11.88;;;1.75;;
39020;SDS011;25188;51.958;5.842;2023-12-28T07:40:03;11.70;;;1.85;;
39020;SDS011;25188;51.958;5.842;2023-12-28T07:42:29;9.75;;;1.48;;
39020;SDS011;25188;51.958;5.842;2023-12-28T07:44:55;17.52;;;2.28;;
39020;SDS011;25188;51.958;5.842;2023-12-28T07:47:20;13.50;;;2.08;;
39020;SDS011;25188;51.958;5.842;2023-12-28T07:49:46;21.75;;;3.67;;
39020;SDS011;25188;51.958;5.842;2023-12-28T07:52:12;16.58;;;2.78;;
39020;SDS011;25188;51.958;5.842;2023-12-28T07:54:38;11.18;;;1.80;;
39020;SDS011;25188;51.958;5.842;2023-12-28T07:57:03;11.70;;;1.83;;
39020;SDS011;25188;51.958;5.842;2023-12-28T07:59:29;15.95;;;1.83;;
39020;SDS011;25188;51.958;5.842;2023-12-28T08:01:55;12.85;;;1.50;;
39020;SDS011;25188;51.958;5.842;2023-12-28T08:04:21;18.88;;;2.20;;
39020;SDS011;25188;51.958;5.842;2023-12-28T08:06:47;13.20;;;2.13;;
39020;SDS011;25188;51.958;5.842;2023-12-28T08:09:13;16.20;;;2.35;;
39020;SDS011;25188;51.958;5.842;2023-12-28T08:11:39;14.43;;;1.73;;
39020;SDS011;25188;51.958;5.842;2023-12-28T08:14:05;14.35;;;2.17;;
39020;SDS011;25188;51.958;5.842;2023-12-28T08:16:30;17.52;;;2.80;;
39020;SDS011;25188;51.958;5.842;2023-12-28T08:18:56;16.15;;;2.38;;
39020;SDS011;25188;51.958;5.842;2023-12-28T08:21:22;14.18;;;1.80;;
39020;SDS011;25188;51.958;5.842;2023-12-28T08:23:48;13.48;;;2.05;;
39020;SDS011;25188;51.958;5.842;2023-12-28T08:26:13;10.50;;;1.48;;
39020;SDS011;25188;51.958;5.842;2023-12-28T08:28:39;9.10;;;1.90;;
39020;SDS011;25188;51.958;5.842;2023-12-28T08:31:05;16.30;;;1.70;;
39020;SDS011;25188;51.958;5.842;2023-12-28T08:33:33;13.48;;;1.73;;
39020;SDS011;25188;51.958;5.842;2023-12-28T08:36:00;15.95;;;2.22;;
39020;SDS011;25188;51.958;5.842;2023-12-28T08:38:28;16.10;;;2.65;;
39020;SDS011;25188;51.958;5.842;2023-12-28T08:40:53;9.75;;;1.52;;
39020;SDS011;25188;51.958;5.842;2023-12-28T08:43:19;12.45;;;2.45;;
39020;SDS011;25188;51.958;5.842;2023-12-28T08:45:45;10.68;;;1.55;;
39020;SDS011;25188;51.958;5.842;2023-12-28T08:48:10;14.05;;;1.88;;
39020;SDS011;25188;51.958;5.842;2023-12-28T08:50:36;19.15;;;2.10;;
39020;SDS011;25188;51.958;5.842;2023-12-28T08:53:02;16.33;;;2.42;;
39020;SDS011;25188;51.958;5.842;2023-12-28T08:55:28;10.85;;;1.58;;
39020;SDS011;25188;51.958;5.842;2023-12-28T08:57:53;15.15;;;3.35;;
39020;SDS011;25188;51.958;5.842;2023-12-28T09:00:19;15.23;;;1.83;;
39020;SDS011;25188;51.958;5.842;2023-12-28T09:02:44;15.88;;;2.22;;
39020;SDS011;25188;51.958;5.842;2023-12-28T09:05:10;10.45;;;1.42;;
39020;SDS011;25188;51.958;5.842;2023-12-28T09:07:36;18.98;;;3.33;;
39020;SDS011;25188;51.958;5.842;2023-12-28T09:10:08;16.23;;;2.10;;
39020;SDS011;25188;51.958;5.842;2023-12-28T09:12:35;13.40;;;2.47;;
39020;SDS011;25188;51.958;5.842;2023-12-28T09:15:00;19.02;;;2.35;;
39020;SDS011;25188;51.958;5.842;2023-12-28T09:17:26;12.40;;;1.67;;
39020;SDS011;25188;51.958;5.842;2023-12-28T09:19:52;13.77;;;1.65;;
39020;SDS011;25188;51.958;5.842;2023-12-28T09:22:17;14.20;;;1.70;;
39020;SDS011;25188;51.958;5.842;2023-12-28T09:24:43;16.23;;;2.53;;
39020;SDS011;25188;51.958;5.842;2023-12-28T09:27:08;13.23;;;2.20;;
39020;SDS011;25188;51.958;5.842;2023-12-28T09:29:34;16.33;;;1.95;;
39020;SDS011;25188;51.958;5.842;2023-12-28T09:32:00;12.63;;;2.35;;
39020;SDS011;25188;51.958;5.842;2023-12-28T09:34:26;14.18;;;2.08;;
39020;SDS011;25188;51.958;5.842;2023-12-28T09:36:53;14.50;;;2.10;;
39020;SDS011;25188;51.958;5.842;2023-12-28T09:39:19;11.75;;;2.28;;
39020;SDS011;25188;51.958;5.842;2023-12-28T09:41:48;11.45;;;1.55;;
39020;SDS011;25188;51.958;5.842;2023-12-28T09:44:20;14.88;;;1.60;;
39020;SDS011;25188;51.958;5.842;2023-12-28T09:46:47;19.02;;;2.00;;
39020;SDS011;25188;51.958;5.842;2023-12-28T09:49:13;21.77;;;4.00;;
39020;SDS011;25188;51.958;5.842;2023-12-28T09:51:39;21.40;;;2.40;;
39020;SDS011;25188;51.958;5.842;2023-12-28T09:54:05;13.13;;;1.38;;
39020;SDS011;25188;51.958;5.842;2023-12-28T09:56:32;13.18;;;1.60;;
39020;SDS011;25188;51.958;5.842;2023-12-28T09:58:58;13.00;;;1.65;;
39020;SDS011;25188;51.958;5.842;2023-12-28T10:01:24;11.75;;;1.35;;
39020;SDS011;25188;51.958;5.842;2023-12-28T10:03:50;13.88;;;1.95;;
39020;SDS011;25188;51.958;5.842;2023-12-28T10:06:16;14.85;;;1.67;;
39020;SDS011;25188;51.958;5.842;2023-12-28T10:08:45;11.57;;;2.45;;
39020;SDS011;25188;51.958;5.842;2023-12-28T10:11:18;18.60;;;1.85;;
39020;SDS011;25188;51.958;5.842;2023-12-28T10:13:44;15.23;;;2.08;;
39020;SDS011;25188;51.958;5.842;2023-12-28T10:16:11;16.15;;;1.98;;
39020;SDS011;25188;51.958;5.842;2023-12-28T10:18:40;16.13;;;2.10;;
39020;SDS011;25188;51.958;5.842;2023-12-28T10:21:07;16.65;;;2.00;;
39020;SDS011;25188;51.958;5.842;2023-12-28T10:23:33;17.25;;;2.55;;
39020;SDS011;25188;51.958;5.842;2023-12-28T10:25:59;13.52;;;2.10;;
39020;SDS011;25188;51.958;5.842;2023-12-28T10:28:26;14.73;;;2.10;;
39020;SDS011;25188;51.958;5.842;2023-12-28T10:30:57;15.00;;;1.50;;
39020;SDS011;25188;51.958;5.842;2023-12-28T10:33:23;12.57;;;1.48;;
39020;SDS011;25188;51.958;5.842;2023-12-28T10:35:50;12.68;;;2.00;;
39020;SDS011;25188;51.958;5.842;2023-12-28T10:38:16;10.65;;;1.40;;
39020;SDS011;25188;51.958;5.842;2023-12-28T10:40:43;13.43;;;1.48;;
39020;SDS011;25188;51.958;5.842;2023-12-28T10:43:11;10.18;;;1.60;;
39020;SDS011;25188;51.958;5.842;2023-12-28T10:45:40;11.50;;;1.75;;
39020;SDS011;25188;51.958;5.842;2023-12-28T10:48:09;11.27;;;1.80;;
39020;SDS011;25188;51.958;5.842;2023-12-28T10:50:40;15.68;;;1.98;;
39020;SDS011;25188;51.958;5.842;2023-12-28T10:56:09;12.25;;;1.60;;
39020;SDS011;25188;51.958;5.842;2023-12-28T11:01:37;15.80;;;1.55;;
39020;SDS011;25188;51.958;5.842;2023-12-28T11:04:10;13.40;;;2.03;;
39020;SDS011;25188;51.958;5.842;2023-12-28T11:06:46;10.95;;;1.73;;
39020;SDS011;25188;51.958;5.842;2023-12-28T11:09:14;11.80;;;1.90;;
39020;SDS011;25188;51.958;5.842;2023-12-28T11:11:41;12.43;;;1.77;;
39020;SDS011;25188;51.958;5.842;2023-12-28T11:14:08;12.80;;;1.95;;
39020;SDS011;25188;51.958;5.842;2023-12-28T11:16:34;14.30;;;1.88;;
39020;SDS011;25188;51.958;5.842;2023-12-28T11:19:02;12.18;;;2.58;;
39020;SDS011;25188;51.958;5.842;2023-12-28T11:21:29;18.77;;;2.38;;
39020;SDS011;25188;51.958;5.842;2023-12-28T11:23:56;13.88;;;2.83;;
39020;SDS011;25188;51.958;5.842;2023-12-28T11:26:22;20.48;;;2.13;;
39020;SDS011;25188;51.958;5.842;2023-12-28T11:28:48;15.13;;;1.98;;
39020;SDS011;25188;51.958;5.842;2023-12-28T11:31:14;15.55;;;2.33;;
39020;SDS011;25188;51.958;5.842;2023-12-28T11:33:44;13.45;;;2.92;;
39020;SDS011;25188;51.958;5.842;2023-12-28T11:36:21;15.00;;;2.05;;
39020;SDS011;25188;51.958;5.842;2023-12-28T11:38:50;16.57;;;2.40;;
39020;SDS011;25188;51.958;5.842;2023-12-28T11:41:20;17.17;;;2.20;;
39020;SDS011;25188;51.958;5.842;2023-12-28T11:43:51;14.32;;;2.10;;
39020;SDS011;25188;51.958;5.842;2023-12-28T11:48:46;18.25;;;2.17;;
39020;SDS011;25188;51.958;5.842;2023-12-28T11:51:11;16.40;;;1.92;;
39020;SDS011;25188;51.958;5.842;2023-12-28T11:53:37;14.07;;;2.90;;
39020;SDS011;25188;51.958;5.842;2023-12-28T11:56:04;13.75;;;2.22;;
39020;SDS011;25188;51.958;5.842;2023-12-28T11:58:34;14.02;;;3.17;;
39020;SDS011;25188;51.958;5.842;2023-12-28T12:01:01;14.68;;;2.17;;
39020;SDS011;25188;51.958;5.842;2023-12-28T12:03:27;15.32;;;2.15;;
39020;SDS011;25188;51.958;5.842;2023-12-28T12:05:55;12.60;;;1.92;;
39020;SDS011;25188;51.958;5.842;2023-12-28T12:08:22;19.30;;;2.70;;
39020;SDS011;25188;51.958;5.842;2023-12-28T12:10:48;15.68;;;2.05;;
39020;SDS011;25188;51.958;5.842;2023-12-28T12:13:24;18.80;;;2.92;;
39020;SDS011;25188;51.958;5.842;2023-12-28T12:15:51;18.83;;;2.60;;
39020;SDS011;25188;51.958;5.842;2023-12-28T12:18:17;14.75;;;2.30;;
39020;SDS011;25188;51.958;5.842;2023-12-28T12:20:43;15.90;;;2.00;;
39020;SDS011;25188;51.958;5.842;2023-12-28T12:23:09;10.65;;;2.42;;
39020;SDS011;25188;51.958;5.842;2023-12-28T12:32:13;17.48;;;2.72;;
39020;SDS011;25188;51.958;5.842;2023-12-28T12:34:39;14.18;;;2.67;;
39020;SDS011;25188;51.958;5.842;2023-12-28T12:37:05;13.13;;;1.88;;
39020;SDS011;25188;51.958;5.842;2023-12-28T12:39:31;16.45;;;2.45;;
39020;SDS011;25188;51.958;5.842;2023-12-28T12:41:57;18.92;;;2.38;;
39020;SDS011;25188;51.958;5.842;2023-12-28T12:44:23;19.88;;;2.95;;
39020;SDS011;25188;51.958;5.842;2023-12-28T12:46:56;12.63;;;1.65;;
39020;SDS011;25188;51.958;5.842;2023-12-28T12:51:48;15.43;;;1.67;;
39020;SDS011;25188;51.958;5.842;2023-12-28T12:54:16;18.52;;;2.00;;
39020;SDS011;25188;51.958;5.842;2023-12-28T12:56:45;14.68;;;2.30;;
39020;SDS011;25188;51.958;5.842;2023-12-28T12:59:11;14.48;;;1.98;;
39020;SDS011;25188;51.958;5.842;2023-12-28T13:01:42;13.90;;;1.95;;
39020;SDS011;25188;51.958;5.842;2023-12-28T13:04:09;15.23;;;2.38;;
39020;SDS011;25188;51.958;5.842;2023-12-28T13:06:35;14.70;;;3.03;;
39020;SDS011;25188;51.958;5.842;2023-12-28T13:09:00;19.25;;;4.68;;
39020;SDS011;25188;51.958;5.842;2023-12-28T13:11:26;20.88;;;3.83;;
39020;SDS011;25188;51.958;5.842;2023-12-28T13:13:52;17.75;;;5.30;;
39020;SDS011;25188;51.958;5.842;2023-12-28T13:16:18;20.63;;;4.13;;
39020;SDS011;25188;51.958;5.842;2023-12-28T13:18:43;19.77;;;3.33;;
39020;SDS011;25188;51.958;5.842;2023-12-28T13:21:09;21.95;;;3.58;;
39020;SDS011;25188;51.958;5.842;2023-12-28T13:23:35;15.77;;;2.75;;
39020;SDS011;25188;51.958;5.842;2023-12-28T13:26:00;22.02;;;2.53;;
39020;SDS011;25188;51.958;5.842;2023-12-28T13:28:26;12.88;;;2.38;;
39020;SDS011;25188;51.958;5.842;2023-12-28T13:30:52;14.25;;;2.03;;
39020;SDS011;25188;51.958;5.842;2023-12-28T13:33:20;17.90;;;2.22;;
39020;SDS011;25188;51.958;5.842;2023-12-28T13:35:47;17.52;;;2.22;;
39020;SDS011;25188;51.958;5.842;2023-12-28T13:38:12;15.95;;;1.58;;
39020;SDS011;25188;51.958;5.842;2023-12-28T13:40:38;16.10;;;2.05;;
39020;SDS011;25188;51.958;5.842;2023-12-28T13:43:04;12.60;;;1.75;;
39020;SDS011;25188;51.958;5.842;2023-12-28T13:45:29;18.35;;;2.33;;
39020;SDS011;25188;51.958;5.842;2023-12-28T13:47:55;12.60;;;2.13;;
39020;SDS011;25188;51.958;5.842;2023-12-28T13:50:21;15.80;;;2.40;;
39020;SDS011;25188;51.958;5.842;2023-12-28T13:52:46;13.10;;;1.50;;
39020;SDS011;25188;51.958;5.842;2023-12-28T13:55:12;13.90;;;1.90;;
39020;SDS011;25188;51.958;5.842;2023-12-28T13:57:38;14.82;;;2.17;;
39020;SDS011;25188;51.958;5.842;2023-12-28T14:00:04;13.02;;;1.90;;
39020;SDS011;25188;51.958;5.842;2023-12-28T14:02:30;18.08;;;2.08;;
39020;SDS011;25188;51.958;5.842;2023-12-28T14:04:56;16.50;;;2.25;;
39020;SDS011;25188;51.958;5.842;2023-12-28T14:07:22;15.75;;;2.00;;
39020;SDS011;25188;51.958;5.842;2023-12-28T14:09:48;10.07;;;1.75;;
39020;SDS011;25188;51.958;5.842;2023-12-28T14:12:14;16.00;;;3.28;;
39020;SDS011;25188;51.958;5.842;2023-12-28T14:14:40;14.77;;;1.95;;
39020;SDS011;25188;51.958;5.842;2023-12-28T14:17:05;18.73;;;3.13;;
39020;SDS011;25188;51.958;5.842;2023-12-28T14:19:31;16.67;;;2.42;;
39020;SDS011;25188;51.958;5.842;2023-12-28T14:21:57;15.35;;;2.53;;
39020;SDS011;25188;51.958;5.842;2023-12-28T14:24:24;16.00;;;2.83;;
39020;SDS011;25188;51.958;5.842;2023-12-28T14:26:51;16.80;;;2.63;;
39020;SDS011;25188;51.958;5.842;2023-12-28T14:29:19;14.90;;;2.60;;
39020;SDS011;25188;51.958;5.842;2023-12-28T14:31:45;17.35;;;2.92;;
39020;SDS011;25188;51.958;5.842;2023-12-28T14:34:12;19.52;;;3.03;;
39020;SDS011;25188;51.958;5.842;2023-12-28T14:36:38;15.82;;;2.25;;
39020;SDS011;25188;51.958;5.842;2023-12-28T14:39:05;27.17;;;2.88;;
39020;SDS011;25188;51.958;5.842;2023-12-28T14:41:32;20.38;;;2.95;;
39020;SDS011;25188;51.958;5.842;2023-12-28T14:43:59;23.33;;;3.25;;
39020;SDS011;25188;51.958;5.842;2023-12-28T14:46:25;18.23;;;2.40;;
39020;SDS011;25188;51.958;5.842;2023-12-28T14:48:51;16.25;;;2.55;;
39020;SDS011;25188;51.958;5.842;2023-12-28T14:51:19;13.32;;;2.13;;